sensor_id;sensor_type;location;lat;lon;timestamp;temperature;humidity
46932;DHT22;32670;51.464;11.964;2023-07-20T00:01:13;25.50;53.20
46932;DHT22;32670;51.464;11.964;2023-07-20T00:03:39;25.40;53.00
46932;DHT22;32670;51.464;11.964;2023-07-20T00:06:04;25.50;53.10
46932;DHT22;32670;51.464;11.964;2023-07-20T00:08:30;25.50;53.00
46932;DHT22;32670;51.464;11.964;2023-07-20T00:10:56;25.40;52.90
46932;DHT22;32670;51.464;11.964;2023-07-20T00:13:21;25.40;52.80
46932;DHT22;32670;51.464;11.964;2023-07-20T00:15:47;25.40;52.70
46932;DHT22;32670;51.464;11.964;2023-07-20T00:18:13;25.40;52.70
46932;DHT22;32670;51.464;11.964;2023-07-20T00:20:39;25.40;52.70
46932;DHT22;32670;51.464;11.964;2023-07-20T00:23:04;25.40;52.70
46932;DHT22;32670;51.464;11.964;2023-07-20T00:25:30;25.40;52.70
46932;DHT22;32670;51.464;11.964;2023-07-20T00:27:55;25.40;52.70
46932;DHT22;32670;51.464;11.964;2023-07-20T00:30:21;25.40;52.60
46932;DHT22;32670;51.464;11.964;2023-07-20T00:32:46;25.50;52.70
46932;DHT22;32670;51.464;11.964;2023-07-20T00:35:12;25.40;52.60
46932;DHT22;32670;51.464;11.964;2023-07-20T00:37:39;25.40;52.50
46932;DHT22;32670;51.464;11.964;2023-07-20T00:40:05;25.40;52.50
46932;DHT22;32670;51.464;11.964;2023-07-20T00:42:32;25.40;52.50
46932;DHT22;32670;51.464;11.964;2023-07-20T00:44:58;25.40;52.40
46932;DHT22;32670;51.464;11.964;2023-07-20T00:47:24;25.40;52.40
46932;DHT22;32670;51.464;11.964;2023-07-20T00:49:51;25.40;52.50
46932;DHT22;32670;51.464;11.964;2023-07-20T00:52:19;25.40;52.50
46932;DHT22;32670;51.464;11.964;2023-07-20T00:54:45;25.40;52.40
46932;DHT22;32670;51.464;11.964;2023-07-20T00:57:14;25.40;52.50
46932;DHT22;32670;51.464;11.964;2023-07-20T00:59:40;25.40;52.40
46932;DHT22;32670;51.464;11.964;2023-07-20T01:02:05;25.40;52.40
46932;DHT22;32670;51.464;11.964;2023-07-20T01:04:31;25.40;52.40
46932;DHT22;32670;51.464;11.964;2023-07-20T01:09:59;25.40;52.50
46932;DHT22;32670;51.464;11.964;2023-07-20T01:12:50;25.40;52.50
46932;DHT22;32670;51.464;11.964;2023-07-20T01:15:14;25.40;52.50
46932;DHT22;32670;51.464;11.964;2023-07-20T01:17:39;25.40;52.50
46932;DHT22;32670;51.464;11.964;2023-07-20T01:20:07;25.40;52.50
46932;DHT22;32670;51.464;11.964;2023-07-20T01:29:17;25.40;52.70
46932;DHT22;32670;51.464;11.964;2023-07-20T01:31:51;25.30;52.60
46932;DHT22;32670;51.464;11.964;2023-07-20T01:34:17;25.30;52.70
46932;DHT22;32670;51.464;11.964;2023-07-20T01:36:44;25.30;52.80
46932;DHT22;32670;51.464;11.964;2023-07-20T01:39:10;25.40;53.00
46932;DHT22;32670;51.464;11.964;2023-07-20T01:41:36;25.30;52.80
46932;DHT22;32670;51.464;11.964;2023-07-20T01:44:03;25.30;52.80
46932;DHT22;32670;51.464;11.964;2023-07-20T01:46:29;25.40;53.00
46932;DHT22;32670;51.464;11.964;2023-07-20T01:48:54;25.40;53.00
46932;DHT22;32670;51.464;11.964;2023-07-20T01:51:20;25.30;53.00
46932;DHT22;32670;51.464;11.964;2023-07-20T01:53:45;25.30;53.00
46932;DHT22;32670;51.464;11.964;2023-07-20T01:56:11;25.30;53.00
46932;DHT22;32670;51.464;11.964;2023-07-20T01:58:37;25.40;53.20
46932;DHT22;32670;51.464;11.964;2023-07-20T02:01:03;25.30;53.10
46932;DHT22;32670;51.464;11.964;2023-07-20T02:03:28;25.30;53.10
46932;DHT22;32670;51.464;11.964;2023-07-20T02:05:54;25.30;53.20
46932;DHT22;32670;51.464;11.964;2023-07-20T02:08:19;25.30;53.20
46932;DHT22;32670;51.464;11.964;2023-07-20T02:10:46;25.30;53.20
46932;DHT22;32670;51.464;11.964;2023-07-20T02:13:12;25.30;53.10
46932;DHT22;32670;51.464;11.964;2023-07-20T02:15:37;25.30;53.20
46932;DHT22;32670;51.464;11.964;2023-07-20T02:18:03;25.30;53.20
46932;DHT22;32670;51.464;11.964;2023-07-20T02:20:28;25.30;53.10
46932;DHT22;32670;51.464;11.964;2023-07-20T02:22:54;25.30;53.10
46932;DHT22;32670;51.464;11.964;2023-07-20T02:25:20;25.30;53.20
46932;DHT22;32670;51.464;11.964;2023-07-20T02:27:46;25.30;53.20
46932;DHT22;32670;51.464;11.964;2023-07-20T02:30:11;25.30;53.20
46932;DHT22;32670;51.464;11.964;2023-07-20T02:32:37;25.30;53.30
46932;DHT22;32670;51.464;11.964;2023-07-20T02:35:02;25.30;53.20
46932;DHT22;32670;51.464;11.964;2023-07-20T02:37:29;25.30;53.20
46932;DHT22;32670;51.464;11.964;2023-07-20T02:39:54;25.30;53.30
46932;DHT22;32670;51.464;11.964;2023-07-20T02:42:20;25.30;53.30
46932;DHT22;32670;51.464;11.964;2023-07-20T02:44:48;25.30;53.30
46932;DHT22;32670;51.464;11.964;2023-07-20T02:47:14;25.30;53.30
46932;DHT22;32670;51.464;11.964;2023-07-20T02:49:40;25.30;53.40
46932;DHT22;32670;51.464;11.964;2023-07-20T02:52:05;25.30;53.30
46932;DHT22;32670;51.464;11.964;2023-07-20T02:54:31;25.30;53.30
46932;DHT22;32670;51.464;11.964;2023-07-20T02:56:57;25.30;53.40
46932;DHT22;32670;51.464;11.964;2023-07-20T02:59:22;25.30;53.30
46932;DHT22;32670;51.464;11.964;2023-07-20T03:01:47;25.30;53.30
46932;DHT22;32670;51.464;11.964;2023-07-20T03:04:13;25.30;53.30
46932;DHT22;32670;51.464;11.964;2023-07-20T03:06:38;25.30;53.40
46932;DHT22;32670;51.464;11.964;2023-07-20T03:09:04;25.30;53.40
46932;DHT22;32670;51.464;11.964;2023-07-20T03:11:31;25.30;53.40
46932;DHT22;32670;51.464;11.964;2023-07-20T03:13:57;25.30;53.40
46932;DHT22;32670;51.464;11.964;2023-07-20T03:16:24;25.30;53.40
46932;DHT22;32670;51.464;11.964;2023-07-20T03:18:50;25.30;53.40
46932;DHT22;32670;51.464;11.964;2023-07-20T03:21:16;25.30;53.40
46932;DHT22;32670;51.464;11.964;2023-07-20T03:23:42;25.30;53.30
46932;DHT22;32670;51.464;11.964;2023-07-20T03:26:08;25.30;53.40
46932;DHT22;32670;51.464;11.964;2023-07-20T03:28:37;25.30;53.40
46932;DHT22;32670;51.464;11.964;2023-07-20T03:31:04;25.30;53.30
46932;DHT22;32670;51.464;11.964;2023-07-20T03:33:30;25.30;53.30
46932;DHT22;32670;51.464;11.964;2023-07-20T03:35:56;25.30;53.30
46932;DHT22;32670;51.464;11.964;2023-07-20T03:38:23;25.30;53.30
46932;DHT22;32670;51.464;11.964;2023-07-20T03:40:52;25.20;53.30
46932;DHT22;32670;51.464;11.964;2023-07-20T03:43:18;25.20;53.40
46932;DHT22;32670;51.464;11.964;2023-07-20T03:45:44;25.20;53.50
46932;DHT22;32670;51.464;11.964;2023-07-20T03:48:11;25.30;53.60
46932;DHT22;32670;51.464;11.964;2023-07-20T03:50:36;25.30;53.50
46932;DHT22;32670;51.464;11.964;2023-07-20T03:53:02;25.30;53.30
46932;DHT22;32670;51.464;11.964;2023-07-20T03:55:27;25.20;53.30
46932;DHT22;32670;51.464;11.964;2023-07-20T03:57:53;25.30;53.30
46932;DHT22;32670;51.464;11.964;2023-07-20T04:00:19;25.30;53.30
46932;DHT22;32670;51.464;11.964;2023-07-20T04:02:44;25.20;53.30
46932;DHT22;32670;51.464;11.964;2023-07-20T04:05:10;25.20;53.30
46932;DHT22;32670;51.464;11.964;2023-07-20T04:07:35;25.30;53.40
46932;DHT22;32670;51.464;11.964;2023-07-20T04:10:01;25.20;53.30
46932;DHT22;32670;51.464;11.964;2023-07-20T04:12:26;25.20;53.40
46932;DHT22;32670;51.464;11.964;2023-07-20T04:14:52;25.20;53.40
46932;DHT22;32670;51.464;11.964;2023-07-20T04:17:18;25.20;53.50
46932;DHT22;32670;51.464;11.964;2023-07-20T04:19:43;25.20;53.50
46932;DHT22;32670;51.464;11.964;2023-07-20T04:22:09;25.20;53.60
46932;DHT22;32670;51.464;11.964;2023-07-20T04:24:35;25.20;53.70
46932;DHT22;32670;51.464;11.964;2023-07-20T04:27:00;25.20;53.70
46932;DHT22;32670;51.464;11.964;2023-07-20T04:29:26;25.20;53.70
46932;DHT22;32670;51.464;11.964;2023-07-20T04:31:51;25.20;53.80
46932;DHT22;32670;51.464;11.964;2023-07-20T04:34:16;25.20;54.00
46932;DHT22;32670;51.464;11.964;2023-07-20T04:36:42;25.20;54.10
46932;DHT22;32670;51.464;11.964;2023-07-20T04:39:07;25.10;54.00
46932;DHT22;32670;51.464;11.964;2023-07-20T04:41:33;25.20;54.20
46932;DHT22;32670;51.464;11.964;2023-07-20T04:43:59;25.20;54.20
46932;DHT22;32670;51.464;11.964;2023-07-20T04:46:25;25.20;54.30
46932;DHT22;32670;51.464;11.964;2023-07-20T04:48:50;25.10;54.30
46932;DHT22;32670;51.464;11.964;2023-07-20T04:51:15;25.10;54.20
46932;DHT22;32670;51.464;11.964;2023-07-20T04:53:43;25.10;54.30
46932;DHT22;32670;51.464;11.964;2023-07-20T04:56:08;25.20;54.50
46932;DHT22;32670;51.464;11.964;2023-07-20T04:58:34;25.20;54.50
46932;DHT22;32670;51.464;11.964;2023-07-20T05:00:59;25.10;54.40
46932;DHT22;32670;51.464;11.964;2023-07-20T05:03:25;25.10;54.50
46932;DHT22;32670;51.464;11.964;2023-07-20T05:05:50;25.10;54.40
46932;DHT22;32670;51.464;11.964;2023-07-20T05:08:16;25.20;54.40
46932;DHT22;32670;51.464;11.964;2023-07-20T05:10:41;25.20;54.40
46932;DHT22;32670;51.464;11.964;2023-07-20T05:13:07;25.20;54.70
46932;DHT22;32670;51.464;11.964;2023-07-20T05:15:33;25.30;54.70
46932;DHT22;32670;51.464;11.964;2023-07-20T05:18:00;25.30;54.40
46932;DHT22;32670;51.464;11.964;2023-07-20T05:20:25;25.30;53.80
46932;DHT22;32670;51.464;11.964;2023-07-20T05:22:51;25.20;53.60
46932;DHT22;32670;51.464;11.964;2023-07-20T05:25:18;25.20;53.40
46932;DHT22;32670;51.464;11.964;2023-07-20T05:27:45;25.10;53.20
46932;DHT22;32670;51.464;11.964;2023-07-20T05:30:11;25.00;53.30
46932;DHT22;32670;51.464;11.964;2023-07-20T05:32:37;25.00;53.30
46932;DHT22;32670;51.464;11.964;2023-07-20T05:35:03;25.00;53.40
46932;DHT22;32670;51.464;11.964;2023-07-20T05:37:28;24.90;53.30
46932;DHT22;32670;51.464;11.964;2023-07-20T05:39:54;24.80;53.30
46932;DHT22;32670;51.464;11.964;2023-07-20T05:42:19;24.80;53.20
46932;DHT22;32670;51.464;11.964;2023-07-20T05:44:45;24.80;52.90
46932;DHT22;32670;51.464;11.964;2023-07-20T05:47:12;24.80;52.90
46932;DHT22;32670;51.464;11.964;2023-07-20T05:49:38;24.70;53.00
46932;DHT22;32670;51.464;11.964;2023-07-20T05:52:03;24.70;52.90
46932;DHT22;32670;51.464;11.964;2023-07-20T05:54:29;24.70;52.80
46932;DHT22;32670;51.464;11.964;2023-07-20T05:56:54;24.70;52.90
46932;DHT22;32670;51.464;11.964;2023-07-20T05:59:20;24.60;53.00
46932;DHT22;32670;51.464;11.964;2023-07-20T06:01:46;24.60;53.10
46932;DHT22;32670;51.464;11.964;2023-07-20T06:04:14;24.60;53.30
46932;DHT22;32670;51.464;11.964;2023-07-20T06:06:39;24.50;53.60
46932;DHT22;32670;51.464;11.964;2023-07-20T06:09:05;24.50;54.00
46932;DHT22;32670;51.464;11.964;2023-07-20T06:11:35;24.50;54.00
46932;DHT22;32670;51.464;11.964;2023-07-20T06:14:00;24.50;53.70
46932;DHT22;32670;51.464;11.964;2023-07-20T06:16:26;24.50;53.60
46932;DHT22;32670;51.464;11.964;2023-07-20T06:18:51;24.40;53.90
46932;DHT22;32670;51.464;11.964;2023-07-20T06:21:17;24.50;53.90
46932;DHT22;32670;51.464;11.964;2023-07-20T06:23:42;24.40;53.60
46932;DHT22;32670;51.464;11.964;2023-07-20T06:26:08;24.40;53.00
46932;DHT22;32670;51.464;11.964;2023-07-20T06:28:33;24.40;52.60
46932;DHT22;32670;51.464;11.964;2023-07-20T06:31:00;24.40;52.50
46932;DHT22;32670;51.464;11.964;2023-07-20T06:33:26;24.30;52.50
46932;DHT22;32670;51.464;11.964;2023-07-20T06:35:52;24.30;52.70
46932;DHT22;32670;51.464;11.964;2023-07-20T06:38:18;24.30;52.90
46932;DHT22;32670;51.464;11.964;2023-07-20T06:40:46;24.30;53.10
46932;DHT22;32670;51.464;11.964;2023-07-20T06:43:11;24.30;52.90
46932;DHT22;32670;51.464;11.964;2023-07-20T06:45:37;24.30;52.90
46932;DHT22;32670;51.464;11.964;2023-07-20T06:48:03;24.30;53.60
46932;DHT22;32670;51.464;11.964;2023-07-20T06:50:29;24.30;53.20
46932;DHT22;32670;51.464;11.964;2023-07-20T06:52:54;24.30;53.20
46932;DHT22;32670;51.464;11.964;2023-07-20T06:55:20;24.30;53.20
46932;DHT22;32670;51.464;11.964;2023-07-20T06:57:45;24.20;53.10
46932;DHT22;32670;51.464;11.964;2023-07-20T07:00:11;24.20;53.00
46932;DHT22;32670;51.464;11.964;2023-07-20T07:02:37;24.30;52.80
46932;DHT22;32670;51.464;11.964;2023-07-20T07:05:03;24.20;52.80
46932;DHT22;32670;51.464;11.964;2023-07-20T07:07:29;24.20;52.90
46932;DHT22;32670;51.464;11.964;2023-07-20T07:09:55;24.20;53.00
46932;DHT22;32670;51.464;11.964;2023-07-20T07:12:20;24.20;53.10
46932;DHT22;32670;51.464;11.964;2023-07-20T07:14:45;24.20;53.20
46932;DHT22;32670;51.464;11.964;2023-07-20T07:17:11;24.20;53.30
46932;DHT22;32670;51.464;11.964;2023-07-20T07:19:36;24.20;53.40
46932;DHT22;32670;51.464;11.964;2023-07-20T07:22:04;24.20;53.40
46932;DHT22;32670;51.464;11.964;2023-07-20T07:24:29;24.20;53.40
46932;DHT22;32670;51.464;11.964;2023-07-20T07:26:59;24.30;53.10
46932;DHT22;32670;51.464;11.964;2023-07-20T07:29:24;24.40;53.00
46932;DHT22;32670;51.464;11.964;2023-07-20T07:31:51;24.40;52.80
46932;DHT22;32670;51.464;11.964;2023-07-20T07:34:16;24.50;52.40
46932;DHT22;32670;51.464;11.964;2023-07-20T07:36:42;24.60;52.30
46932;DHT22;32670;51.464;11.964;2023-07-20T07:39:08;24.60;52.20
46932;DHT22;32670;51.464;11.964;2023-07-20T07:41:34;24.60;52.00
46932;DHT22;32670;51.464;11.964;2023-07-20T07:44:00;24.70;51.90
46932;DHT22;32670;51.464;11.964;2023-07-20T07:46:25;24.70;51.80
46932;DHT22;32670;51.464;11.964;2023-07-20T07:48:51;24.70;51.70
46932;DHT22;32670;51.464;11.964;2023-07-20T07:51:16;24.80;51.60
46932;DHT22;32670;51.464;11.964;2023-07-20T07:53:42;24.80;51.50
46932;DHT22;32670;51.464;11.964;2023-07-20T07:56:09;24.80;51.40
46932;DHT22;32670;51.464;11.964;2023-07-20T07:58:34;24.80;51.40
46932;DHT22;32670;51.464;11.964;2023-07-20T08:01:00;24.80;51.20
46932;DHT22;32670;51.464;11.964;2023-07-20T08:03:25;24.90;51.20
46932;DHT22;32670;51.464;11.964;2023-07-20T08:05:53;24.90;51.10
46932;DHT22;32670;51.464;11.964;2023-07-20T08:08:20;24.90;51.10
46932;DHT22;32670;51.464;11.964;2023-07-20T08:10:46;24.90;51.00
46932;DHT22;32670;51.464;11.964;2023-07-20T08:13:12;24.90;50.90
46932;DHT22;32670;51.464;11.964;2023-07-20T08:15:38;24.90;50.80
46932;DHT22;32670;51.464;11.964;2023-07-20T08:18:03;25.00;50.80
46932;DHT22;32670;51.464;11.964;2023-07-20T08:20:29;25.00;50.70
46932;DHT22;32670;51.464;11.964;2023-07-20T08:22:55;25.00;50.70
46932;DHT22;32670;51.464;11.964;2023-07-20T08:25:21;25.00;50.60
46932;DHT22;32670;51.464;11.964;2023-07-20T08:27:47;25.00;50.60
46932;DHT22;32670;51.464;11.964;2023-07-20T08:30:13;25.00;50.60
46932;DHT22;32670;51.464;11.964;2023-07-20T08:32:38;25.00;50.50
46932;DHT22;32670;51.464;11.964;2023-07-20T08:35:05;25.00;50.50
46932;DHT22;32670;51.464;11.964;2023-07-20T08:37:31;25.00;50.40
46932;DHT22;32670;51.464;11.964;2023-07-20T08:39:56;25.00;50.30
46932;DHT22;32670;51.464;11.964;2023-07-20T08:42:22;25.10;50.40
46932;DHT22;32670;51.464;11.964;2023-07-20T08:44:48;25.10;50.30
46932;DHT22;32670;51.464;11.964;2023-07-20T08:47:16;25.10;50.30
46932;DHT22;32670;51.464;11.964;2023-07-20T08:49:41;25.10;50.30
46932;DHT22;32670;51.464;11.964;2023-07-20T08:52:08;25.10;50.20
46932;DHT22;32670;51.464;11.964;2023-07-20T08:54:34;25.10;50.20
46932;DHT22;32670;51.464;11.964;2023-07-20T08:57:04;25.10;50.20
46932;DHT22;32670;51.464;11.964;2023-07-20T08:59:31;25.10;50.20
46932;DHT22;32670;51.464;11.964;2023-07-20T09:01:59;25.10;50.20
46932;DHT22;32670;51.464;11.964;2023-07-20T09:04:24;25.10;50.20
46932;DHT22;32670;51.464;11.964;2023-07-20T09:06:50;25.10;50.20
46932;DHT22;32670;51.464;11.964;2023-07-20T09:09:16;25.10;50.10
46932;DHT22;32670;51.464;11.964;2023-07-20T09:11:42;25.10;50.00
46932;DHT22;32670;51.464;11.964;2023-07-20T09:14:09;25.10;50.10
46932;DHT22;32670;51.464;11.964;2023-07-20T09:16:52;25.10;50.10
46932;DHT22;32670;51.464;11.964;2023-07-20T09:19:18;25.10;50.00
46932;DHT22;32670;51.464;11.964;2023-07-20T09:21:45;25.10;50.00
46932;DHT22;32670;51.464;11.964;2023-07-20T09:24:12;25.10;49.90
46932;DHT22;32670;51.464;11.964;2023-07-20T09:26:42;25.10;49.90
46932;DHT22;32670;51.464;11.964;2023-07-20T09:29:08;25.10;49.90
46932;DHT22;32670;51.464;11.964;2023-07-20T09:31:37;25.10;49.80
46932;DHT22;32670;51.464;11.964;2023-07-20T09:34:04;25.10;49.90
46932;DHT22;32670;51.464;11.964;2023-07-20T09:36:33;25.20;50.10
46932;DHT22;32670;51.464;11.964;2023-07-20T09:38:59;25.20;50.00
46932;DHT22;32670;51.464;11.964;2023-07-20T09:41:25;25.20;50.10
46932;DHT22;32670;51.464;11.964;2023-07-20T09:43:52;25.20;50.00
46932;DHT22;32670;51.464;11.964;2023-07-20T09:46:18;25.20;50.10
46932;DHT22;32670;51.464;11.964;2023-07-20T09:48:52;25.20;49.90
46932;DHT22;32670;51.464;11.964;2023-07-20T09:51:21;25.20;49.90
46932;DHT22;32670;51.464;11.964;2023-07-20T09:53:48;25.20;49.90
46932;DHT22;32670;51.464;11.964;2023-07-20T09:56:16;25.20;49.90
46932;DHT22;32670;51.464;11.964;2023-07-20T09:58:42;25.20;49.80
46932;DHT22;32670;51.464;11.964;2023-07-20T10:01:09;25.20;49.70
46932;DHT22;32670;51.464;11.964;2023-07-20T10:03:37;25.30;49.80
46932;DHT22;32670;51.464;11.964;2023-07-20T10:06:06;25.20;49.70
46932;DHT22;32670;51.464;11.964;2023-07-20T10:08:37;25.20;49.70
46932;DHT22;32670;51.464;11.964;2023-07-20T10:11:05;25.30;49.80
46932;DHT22;32670;51.464;11.964;2023-07-20T10:13:33;25.30;49.80
46932;DHT22;32670;51.464;11.964;2023-07-20T10:16:03;25.30;49.70
46932;DHT22;32670;51.464;11.964;2023-07-20T10:18:41;25.30;49.70
46932;DHT22;32670;51.464;11.964;2023-07-20T10:21:07;25.30;49.60
46932;DHT22;32670;51.464;11.964;2023-07-20T10:23:34;25.30;49.60
46932;DHT22;32670;51.464;11.964;2023-07-20T10:26:01;25.30;49.60
46932;DHT22;32670;51.464;11.964;2023-07-20T10:28:27;25.30;49.60
46932;DHT22;32670;51.464;11.964;2023-07-20T10:30:53;25.30;49.70
46932;DHT22;32670;51.464;11.964;2023-07-20T10:33:19;25.30;49.90
46932;DHT22;32670;51.464;11.964;2023-07-20T10:36:01;25.30;49.80
46932;DHT22;32670;51.464;11.964;2023-07-20T10:41:29;25.30;49.60
46932;DHT22;32670;51.464;11.964;2023-07-20T10:44:21;25.30;49.60
46932;DHT22;32670;51.464;11.964;2023-07-20T10:46:46;25.30;49.60
46932;DHT22;32670;51.464;11.964;2023-07-20T10:49:13;25.30;49.60
46932;DHT22;32670;51.464;11.964;2023-07-20T10:56:52;25.30;49.40
46932;DHT22;32670;51.464;11.964;2023-07-20T11:01:48;25.30;49.50
46932;DHT22;32670;51.464;11.964;2023-07-20T11:04:17;25.30;49.40
46932;DHT22;32670;51.464;11.964;2023-07-20T11:06:44;25.30;49.40
46932;DHT22;32670;51.464;11.964;2023-07-20T11:09:12;25.30;49.40
46932;DHT22;32670;51.464;11.964;2023-07-20T11:11:41;25.30;49.40
46932;DHT22;32670;51.464;11.964;2023-07-20T11:14:25;25.30;50.00
46932;DHT22;32670;51.464;11.964;2023-07-20T11:16:52;25.30;49.30
46932;DHT22;32670;51.464;11.964;2023-07-20T11:19:19;25.30;49.30
46932;DHT22;32670;51.464;11.964;2023-07-20T11:21:46;25.30;49.30
46932;DHT22;32670;51.464;11.964;2023-07-20T11:24:12;25.40;49.40
46932;DHT22;32670;51.464;11.964;2023-07-20T11:26:41;25.40;49.30
46932;DHT22;32670;51.464;11.964;2023-07-20T11:29:07;25.40;49.40
46932;DHT22;32670;51.464;11.964;2023-07-20T11:31:40;25.40;49.30
46932;DHT22;32670;51.464;11.964;2023-07-20T11:34:10;25.40;49.30
46932;DHT22;32670;51.464;11.964;2023-07-20T11:36:38;25.40;49.30
46932;DHT22;32670;51.464;11.964;2023-07-20T11:39:03;25.40;49.30
46932;DHT22;32670;51.464;11.964;2023-07-20T11:41:31;25.40;49.20
46932;DHT22;32670;51.464;11.964;2023-07-20T11:43:57;25.40;49.30
46932;DHT22;32670;51.464;11.964;2023-07-20T11:46:22;25.40;49.20
46932;DHT22;32670;51.464;11.964;2023-07-20T11:48:48;25.40;49.30
46932;DHT22;32670;51.464;11.964;2023-07-20T11:51:17;25.40;49.40
46932;DHT22;32670;51.464;11.964;2023-07-20T11:53:44;25.40;49.50
46932;DHT22;32670;51.464;11.964;2023-07-20T11:56:11;25.40;49.40
46932;DHT22;32670;51.464;11.964;2023-07-20T11:58:44;25.40;49.30
46932;DHT22;32670;51.464;11.964;2023-07-20T12:01:11;25.40;49.30
46932;DHT22;32670;51.464;11.964;2023-07-20T12:03:37;25.40;49.30
46932;DHT22;32670;51.464;11.964;2023-07-20T12:06:09;25.40;49.20
46932;DHT22;32670;51.464;11.964;2023-07-20T12:08:34;25.40;49.20
46932;DHT22;32670;51.464;11.964;2023-07-20T12:11:00;25.40;49.20
46932;DHT22;32670;51.464;11.964;2023-07-20T12:13:44;25.50;49.20
46932;DHT22;32670;51.464;11.964;2023-07-20T12:16:14;25.40;49.20
46932;DHT22;32670;51.464;11.964;2023-07-20T12:18:41;25.50;49.20
46932;DHT22;32670;51.464;11.964;2023-07-20T12:21:07;25.50;49.20
46932;DHT22;32670;51.464;11.964;2023-07-20T12:23:41;25.40;49.10
46932;DHT22;32670;51.464;11.964;2023-07-20T12:26:10;25.50;49.10
46932;DHT22;32670;51.464;11.964;2023-07-20T12:28:41;25.50;49.10
46932;DHT22;32670;51.464;11.964;2023-07-20T12:31:08;25.50;49.10
46932;DHT22;32670;51.464;11.964;2023-07-20T12:33:35;25.50;49.60
46932;DHT22;32670;51.464;11.964;2023-07-20T12:36:00;25.50;49.00
46932;DHT22;32670;51.464;11.964;2023-07-20T12:38:26;25.50;49.10
46932;DHT22;32670;51.464;11.964;2023-07-20T12:40:53;25.50;49.00
46932;DHT22;32670;51.464;11.964;2023-07-20T12:43:20;25.50;49.00
46932;DHT22;32670;51.464;11.964;2023-07-20T12:45:46;25.50;49.20
46932;DHT22;32670;51.464;11.964;2023-07-20T12:48:11;25.50;49.20
46932;DHT22;32670;51.464;11.964;2023-07-20T12:50:37;25.50;49.10
46932;DHT22;32670;51.464;11.964;2023-07-20T12:53:02;25.50;49.00
46932;DHT22;32670;51.464;11.964;2023-07-20T12:55:29;25.50;49.00
46932;DHT22;32670;51.464;11.964;2023-07-20T12:57:55;25.50;49.00
46932;DHT22;32670;51.464;11.964;2023-07-20T13:00:20;25.50;48.90
46932;DHT22;32670;51.464;11.964;2023-07-20T13:02:48;25.50;48.90
46932;DHT22;32670;51.464;11.964;2023-07-20T13:05:14;25.50;48.90
46932;DHT22;32670;51.464;11.964;2023-07-20T13:07:41;25.50;48.90
46932;DHT22;32670;51.464;11.964;2023-07-20T13:10:08;25.50;49.50
46932;DHT22;32670;51.464;11.964;2023-07-20T13:12:34;25.50;48.90
46932;DHT22;32670;51.464;11.964;2023-07-20T13:15:08;25.50;48.80
46932;DHT22;32670;51.464;11.964;2023-07-20T13:17:38;25.50;48.90
46932;DHT22;32670;51.464;11.964;2023-07-20T13:20:05;25.50;48.90
46932;DHT22;32670;51.464;11.964;2023-07-20T13:22:32;25.60;48.90
46932;DHT22;32670;51.464;11.964;2023-07-20T13:24:57;25.50;48.80
46932;DHT22;32670;51.464;11.964;2023-07-20T13:27:23;25.50;48.80
46932;DHT22;32670;51.464;11.964;2023-07-20T13:29:50;25.50;48.80
46932;DHT22;32670;51.464;11.964;2023-07-20T13:32:16;25.50;48.70
46932;DHT22;32670;51.464;11.964;2023-07-20T13:34:43;25.50;48.80
46932;DHT22;32670;51.464;11.964;2023-07-20T13:37:10;25.50;48.70
46932;DHT22;32670;51.464;11.964;2023-07-20T13:39:35;25.50;48.80
46932;DHT22;32670;51.464;11.964;2023-07-20T13:42:01;25.50;48.70
46932;DHT22;32670;51.464;11.964;2023-07-20T13:44:29;25.50;48.70
46932;DHT22;32670;51.464;11.964;2023-07-20T13:46:54;25.50;48.70
46932;DHT22;32670;51.464;11.964;2023-07-20T13:49:20;25.50;48.60
46932;DHT22;32670;51.464;11.964;2023-07-20T13:51:45;25.50;48.60
46932;DHT22;32670;51.464;11.964;2023-07-20T13:54:11;25.50;48.60
46932;DHT22;32670;51.464;11.964;2023-07-20T13:56:37;25.50;48.70
46932;DHT22;32670;51.464;11.964;2023-07-20T13:59:02;25.60;48.70
46932;DHT22;32670;51.464;11.964;2023-07-20T14:01:28;25.60;48.60
46932;DHT22;32670;51.464;11.964;2023-07-20T14:03:55;25.60;48.70
46932;DHT22;32670;51.464;11.964;2023-07-20T14:06:21;25.60;48.60
46932;DHT22;32670;51.464;11.964;2023-07-20T14:08:46;25.60;48.70
46932;DHT22;32670;51.464;11.964;2023-07-20T14:11:13;25.60;48.60
46932;DHT22;32670;51.464;11.964;2023-07-20T14:13:38;25.60;48.60
46932;DHT22;32670;51.464;11.964;2023-07-20T14:16:04;25.60;48.60
46932;DHT22;32670;51.464;11.964;2023-07-20T14:18:30;25.60;48.60
46932;DHT22;32670;51.464;11.964;2023-07-20T14:20:55;25.60;48.60
46932;DHT22;32670;51.464;11.964;2023-07-20T14:23:21;25.60;48.50
46932;DHT22;32670;51.464;11.964;2023-07-20T14:25:46;25.60;48.50
46932;DHT22;32670;51.464;11.964;2023-07-20T14:28:11;25.60;48.60
46932;DHT22;32670;51.464;11.964;2023-07-20T14:30:38;25.60;48.50
46932;DHT22;32670;51.464;11.964;2023-07-20T14:33:03;25.60;48.50
46932;DHT22;32670;51.464;11.964;2023-07-20T14:35:29;25.60;48.50
46932;DHT22;32670;51.464;11.964;2023-07-20T14:37:54;25.60;48.40
46932;DHT22;32670;51.464;11.964;2023-07-20T14:40:20;25.60;48.50
46932;DHT22;32670;51.464;11.964;2023-07-20T14:42:46;25.60;48.50
46932;DHT22;32670;51.464;11.964;2023-07-20T14:45:11;25.60;48.50
46932;DHT22;32670;51.464;11.964;2023-07-20T14:47:37;25.60;47.80
46932;DHT22;32670;51.464;11.964;2023-07-20T14:50:03;25.50;46.80
46932;DHT22;32670;51.464;11.964;2023-07-20T14:52:28;25.50;46.10
46932;DHT22;32670;51.464;11.964;2023-07-20T14:54:54;25.50;45.50
46932;DHT22;32670;51.464;11.964;2023-07-20T14:57:20;25.50;45.30
46932;DHT22;32670;51.464;11.964;2023-07-20T14:59:48;25.50;45.20
46932;DHT22;32670;51.464;11.964;2023-07-20T15:02:14;25.50;45.50
46932;DHT22;32670;51.464;11.964;2023-07-20T15:04:46;25.50;45.40
46932;DHT22;32670;51.464;11.964;2023-07-20T15:07:12;25.50;45.00
46932;DHT22;32670;51.464;11.964;2023-07-20T15:09:37;25.40;43.40
46932;DHT22;32670;51.464;11.964;2023-07-20T15:12:03;25.30;42.60
46932;DHT22;32670;51.464;11.964;2023-07-20T15:14:29;25.30;42.60
46932;DHT22;32670;51.464;11.964;2023-07-20T15:16:54;25.30;42.30
46932;DHT22;32670;51.464;11.964;2023-07-20T15:19:20;25.30;41.90
46932;DHT22;32670;51.464;11.964;2023-07-20T15:21:47;25.30;40.90
46932;DHT22;32670;51.464;11.964;2023-07-20T15:24:12;25.30;41.20
46932;DHT22;32670;51.464;11.964;2023-07-20T15:26:38;25.30;41.30
46932;DHT22;32670;51.464;11.964;2023-07-20T15:29:04;25.30;41.30
46932;DHT22;32670;51.464;11.964;2023-07-20T15:31:29;25.30;41.30